createdAt,value
2018-04-09T00:00:29.178Z,0
2018-04-09T00:01:29.208Z,0
2018-04-09T00:02:28.973Z,0
2018-04-09T00:04:43.924Z,0
2018-04-09T00:05:29.281Z,0
2018-04-09T00:06:29.564Z,0
2018-04-09T00:07:29.582Z,0
2018-04-09T00:08:29.610Z,0
2018-04-09T00:09:29.108Z,0
2018-04-09T00:10:29.645Z,0
2018-04-09T00:11:44.331Z,0
2018-04-09T00:12:29.426Z,0
2018-04-09T00:13:29.448Z,0
2018-04-09T00:14:29.732Z,0
2018-04-09T00:15:29.762Z,0
2018-04-09T00:16:29.767Z,0
2018-04-09T00:17:29.528Z,0
2018-04-09T00:18:29.809Z,0
2018-04-09T00:19:29.826Z,0
2018-04-09T00:20:44.247Z,0
2018-04-09T00:21:29.610Z,0
2018-04-09T00:22:29.892Z,0
2018-04-09T00:23:29.911Z,0
2018-04-09T00:24:44.073Z,0
2018-04-09T00:25:29.696Z,0
2018-04-09T00:26:29.711Z,0
2018-04-09T00:27:29.730Z,0
2018-04-09T00:28:29.499Z,0
2018-04-09T00:29:30.059Z,0
2018-04-09T00:30:30.058Z,0
2018-04-09T00:31:29.553Z,0
2018-04-09T00:32:29.577Z,0
2018-04-09T00:33:29.852Z,0
2018-04-09T00:34:29.621Z,0
2018-04-09T00:35:29.893Z,0
2018-04-09T00:36:44.836Z,0
2018-04-09T00:37:29.938Z,0
2018-04-09T00:38:30.215Z,0
2018-04-09T00:39:30.272Z,0
2018-04-09T00:40:30.256Z,0
2018-04-09T00:41:30.274Z,0
2018-04-09T00:42:30.301Z,0
2018-04-09T00:43:30.315Z,0
2018-04-09T00:44:30.214Z,0
2018-04-09T00:45:30.377Z,0
2018-04-09T00:46:45.039Z,0
2018-04-09T00:47:30.397Z,0
2018-04-09T00:48:30.162Z,0
2018-04-09T00:49:30.445Z,0
2018-04-09T00:50:30.459Z,0
2018-04-09T00:51:30.217Z,0
2018-04-09T00:52:45.166Z,0
2018-04-09T00:53:29.740Z,0
2018-04-09T00:55:30.040Z,0
2018-04-09T00:56:30.588Z,0
2018-04-09T00:57:30.604Z,0
2018-04-09T00:58:30.359Z,0
2018-04-09T00:59:45.301Z,0
2018-04-09T01:00:30.402Z,0
2018-04-09T01:02:30.180Z,0
2018-04-09T01:03:30.719Z,0
2018-04-09T01:04:30.743Z,0
2018-04-09T01:05:30.759Z,0
2018-04-09T01:06:30.788Z,0
2018-04-09T01:07:45.464Z,0
2018-04-09T01:08:30.821Z,0
2018-04-09T01:09:30.844Z,0
2018-04-09T01:11:30.880Z,0
2018-04-09T01:12:30.643Z,0
2018-04-09T01:13:30.922Z,0
2018-04-09T01:14:30.681Z,0
2018-04-09T01:15:30.704Z,0
2018-04-09T01:16:30.980Z,0
2018-04-09T01:17:31.000Z,0
2018-04-09T01:18:31.016Z,0
2018-04-09T01:19:30.784Z,0
2018-04-09T01:20:30.801Z,0
2018-04-09T01:21:30.822Z,0
2018-04-09T01:22:31.106Z,0
2018-04-09T01:23:45.785Z,0
2018-04-09T01:24:30.891Z,0
2018-04-09T01:25:31.163Z,0
2018-04-09T01:26:30.920Z,0
2018-04-09T01:27:30.680Z,0
2018-04-09T01:28:31.219Z,0
2018-04-09T01:29:45.898Z,0
2018-04-09T01:30:30.998Z,0
2018-04-09T01:31:31.323Z,0
2018-04-09T01:32:31.301Z,0
2018-04-09T01:33:31.057Z,0
2018-04-09T01:34:31.082Z,0
2018-04-09T01:35:31.097Z,0
2018-04-09T01:36:31.118Z,0
2018-04-09T01:37:31.405Z,0
2018-04-09T01:38:31.160Z,0
2018-04-09T01:39:46.096Z,0
2018-04-09T01:40:30.939Z,0
2018-04-09T01:41:45.876Z,0
2018-04-09T01:42:31.499Z,0
2018-04-09T01:43:30.998Z,0
2018-04-09T01:44:31.536Z,0
2018-04-09T01:45:31.563Z,0
2018-04-09T01:46:31.320Z,0
2018-04-09T01:47:31.078Z,0
2018-04-09T01:48:31.614Z,0
2018-04-09T01:49:31.382Z,0
2018-04-09T01:50:31.399Z,0
2018-04-09T01:51:31.675Z,0
2018-04-09T01:52:31.695Z,0
2018-04-09T01:53:31.453Z,0
2018-04-09T01:54:31.729Z,0
2018-04-09T01:55:46.152Z,0
2018-04-09T01:56:46.173Z,0
2018-04-09T01:57:31.273Z,0
2018-04-09T01:58:31.814Z,0
2018-04-09T01:59:31.572Z,0
2018-04-09T02:01:31.612Z,0
2018-04-09T02:02:46.292Z,0
2018-04-09T02:03:31.909Z,0
2018-04-09T02:04:31.414Z,0
2018-04-09T02:05:31.950Z,0
2018-04-09T02:07:31.728Z,0
2018-04-09T02:08:32.012Z,0
2018-04-09T02:09:32.046Z,0
2018-04-09T02:10:32.054Z,0
2018-04-09T02:13:31.846Z,0
2018-04-09T02:14:32.139Z,0
2018-04-09T02:15:32.144Z,0
2018-04-09T02:16:32.162Z,0
2018-04-09T02:17:31.928Z,0
2018-04-09T02:18:32.204Z,0
2018-04-09T02:19:31.966Z,0
2018-04-09T02:20:32.238Z,0
2018-04-09T02:21:32.266Z,0
2018-04-09T02:22:32.021Z,0
2018-04-09T02:23:32.040Z,0
2018-04-09T02:25:32.338Z,0
2018-04-09T02:26:47.017Z,0
2018-04-09T02:28:01.695Z,0
2018-04-09T02:28:32.146Z,0
2018-04-09T02:29:32.428Z,0
2018-04-09T02:31:47.125Z,0
2018-04-09T02:32:32.218Z,0
2018-04-09T02:33:32.504Z,0
2018-04-09T02:34:32.257Z,0
2018-04-09T02:35:32.539Z,0
2018-04-09T02:36:32.551Z,0
2018-04-09T02:37:32.578Z,0
2018-04-09T02:38:32.363Z,0
2018-04-09T02:39:32.358Z,0
2018-04-09T02:40:32.637Z,0
2018-04-09T02:41:47.057Z,0
2018-04-09T02:42:47.327Z,0
2018-04-09T02:43:47.364Z,0
2018-04-09T02:44:32.761Z,0
2018-04-09T02:45:32.762Z,0
2018-04-09T02:46:47.416Z,0
2018-04-09T02:47:47.434Z,0
2018-04-09T02:49:32.551Z,0
2018-04-09T02:50:47.485Z,0
2018-04-09T02:51:32.850Z,0
2018-04-09T02:52:32.868Z,0
2018-04-09T02:53:32.888Z,0
2018-04-09T02:54:32.650Z,0
2018-04-09T02:55:32.662Z,0
2018-04-09T02:56:32.944Z,0
2018-04-09T02:57:47.407Z,0
2018-04-09T02:58:32.723Z,0
2018-04-09T02:59:47.397Z,0
2018-04-09T03:00:32.759Z,0
2018-04-09T03:01:33.066Z,0
2018-04-09T03:02:33.073Z,0
2018-04-09T03:03:47.735Z,0
2018-04-09T03:04:32.870Z,0
2018-04-09T03:05:47.776Z,0
2018-04-09T03:06:33.134Z,0
2018-04-09T03:07:32.640Z,0
2018-04-09T03:08:33.171Z,0
2018-04-09T03:09:33.013Z,0
2018-04-09T03:10:47.866Z,0
2018-04-09T03:11:33.239Z,0
2018-04-09T03:12:47.902Z,0
2018-04-09T03:13:33.265Z,0
2018-04-09T03:14:47.940Z,0
2018-04-09T03:15:33.305Z,0
2018-04-09T03:16:33.322Z,0
2018-04-09T03:17:33.335Z,0
2018-04-09T03:18:33.365Z,0
2018-04-09T03:19:33.376Z,0
2018-04-09T03:20:33.396Z,0
2018-04-09T03:21:48.077Z,0
2018-04-09T03:22:48.097Z,0
2018-04-09T03:23:33.456Z,0
2018-04-09T03:24:33.474Z,0
2018-04-09T03:25:33.489Z,0
2018-04-09T03:26:33.507Z,0
2018-04-09T03:27:33.271Z,0
2018-04-09T03:28:33.029Z,0
2018-04-09T03:29:33.563Z,0
2018-04-09T03:30:48.247Z,0
2018-04-09T03:31:33.359Z,0
2018-04-09T03:32:33.632Z,0
2018-04-09T03:33:33.642Z,0
2018-04-09T03:34:48.324Z,0
2018-04-09T03:35:33.674Z,0
2018-04-09T03:36:33.438Z,0
2018-04-09T03:37:33.719Z,0
2018-04-09T03:38:33.734Z,0
2018-04-09T03:39:33.490Z,0
2018-04-09T03:40:33.772Z,0
2018-04-09T03:41:33.792Z,0
2018-04-09T03:42:33.811Z,0
2018-04-09T03:43:33.827Z,0
2018-04-09T03:44:33.592Z,4
2018-04-09T03:45:33.872Z,4
2018-04-09T03:46:48.543Z,0
2018-04-09T03:47:48.560Z,4
2018-04-09T03:48:48.327Z,4
2018-04-09T03:49:33.681Z,4
2018-04-09T03:50:33.961Z,4
2018-04-09T03:51:33.978Z,8
2018-04-09T03:52:34.125Z,4
2018-04-09T03:53:48.678Z,8
2018-04-09T03:54:33.775Z,8
2018-04-09T03:55:33.802Z,8
2018-04-09T03:56:34.071Z,12
2018-04-09T03:57:34.089Z,16
2018-04-09T03:58:34.013Z,16
2018-04-09T03:59:33.870Z,20
2018-04-09T04:00:34.151Z,20
2018-04-09T04:01:34.175Z,24
2018-04-09T04:02:48.846Z,32
2018-04-09T04:03:33.948Z,36
2018-04-09T04:04:34.224Z,44
2018-04-09T04:05:34.237Z,52
2018-04-09T04:06:34.270Z,60
2018-04-09T04:07:34.275Z,72
2018-04-09T04:08:34.293Z,80
2018-04-09T04:09:34.317Z,92
2018-04-09T04:10:34.342Z,104
2018-04-09T04:11:34.357Z,112
2018-04-09T04:12:48.767Z,136
2018-04-09T04:13:34.391Z,148
2018-04-09T04:14:34.148Z,164
2018-04-09T04:15:34.167Z,184
2018-04-09T04:16:34.452Z,208
2018-04-09T04:18:34.485Z,256
2018-04-09T04:20:34.526Z,316
2018-04-09T04:21:34.543Z,348
2018-04-09T04:22:34.658Z,380
2018-04-09T04:23:34.628Z,416
2018-04-09T04:24:34.614Z,452
2018-04-09T04:25:34.612Z,496
2018-04-09T04:26:34.628Z,536
2018-04-09T04:27:34.649Z,584
2018-04-09T04:28:49.372Z,648
2018-04-09T04:29:34.696Z,688
2018-04-09T04:30:34.709Z,748
2018-04-09T04:31:34.729Z,812
2018-04-09T04:32:49.401Z,892
2018-04-09T04:34:34.783Z,1020
2018-04-09T04:35:34.803Z,1096
2018-04-09T04:36:34.818Z,1180
2018-04-09T04:37:34.579Z,1256
2018-04-09T04:38:34.855Z,1336
2018-04-09T04:39:34.873Z,1420
2018-04-09T04:40:34.895Z,1512
2018-04-09T04:41:34.921Z,1604
2018-04-09T04:42:34.671Z,1704
2018-04-09T04:43:34.950Z,1812
2018-04-09T04:44:34.449Z,1920
2018-04-09T04:45:35.042Z,2040
2018-04-09T04:46:34.490Z,2164
2018-04-09T04:47:34.504Z,2288
2018-04-09T04:48:34.784Z,2420
2018-04-09T04:49:49.717Z,2592
2018-04-09T04:50:34.820Z,2696
2018-04-09T04:51:35.099Z,2840
2018-04-09T04:52:35.118Z,2992
2018-04-09T04:53:35.134Z,3144
2018-04-09T04:54:35.160Z,4012
2018-04-09T04:55:34.914Z,5804
2018-04-09T04:56:35.199Z,7352
2018-04-09T04:57:34.955Z,8096
2018-04-09T04:58:35.230Z,7712
2018-04-09T04:59:35.248Z,7708
2018-04-09T05:00:35.267Z,7584
2018-04-09T05:01:35.286Z,7480
2018-04-09T05:02:35.311Z,8548
2018-04-09T05:03:35.330Z,9856
2018-04-09T05:04:35.343Z,12096
2018-04-09T05:05:50.025Z,13408
2018-04-09T05:06:35.387Z,13280
2018-04-09T05:07:34.887Z,11552
2018-04-09T05:08:35.428Z,9944
2018-04-09T05:09:50.109Z,7316
2018-04-09T05:10:50.223Z,5828
2018-04-09T05:11:35.491Z,5904
2018-04-09T05:12:35.515Z,6056
2018-04-09T05:13:35.278Z,6220
2018-04-09T05:14:35.548Z,6380
2018-04-09T05:16:35.589Z,6720
2018-04-09T05:17:35.349Z,6888
2018-04-09T05:18:35.629Z,7464
2018-04-09T05:19:35.658Z,12768
2018-04-09T05:20:35.423Z,13824
2018-04-09T05:21:50.092Z,13824
2018-04-09T05:22:35.196Z,18144
2018-04-09T05:23:35.730Z,21408
2018-04-09T05:24:35.753Z,21472
2018-04-09T05:25:35.512Z,19424
2018-04-09T05:26:35.797Z,17600
2018-04-09T05:27:35.561Z,18272
2018-04-09T05:28:50.243Z,14048
2018-04-09T05:29:35.354Z,15072
2018-04-09T05:30:35.886Z,16672
2018-04-09T05:31:35.906Z,15904
2018-04-09T05:32:35.921Z,17056
2018-04-09T05:33:35.689Z,18912
2018-04-09T05:34:35.976Z,20128
2018-04-09T05:35:35.996Z,18880
2018-04-09T05:36:36.024Z,20480
2018-04-09T05:37:50.697Z,23456
2018-04-09T05:38:36.069Z,26336
2018-04-09T05:39:36.088Z,27872
2018-04-09T05:40:50.771Z,30144
2018-04-09T05:41:35.876Z,30464
2018-04-09T05:42:36.151Z,30368
2018-04-09T05:43:35.914Z,29472
2018-04-09T05:44:36.214Z,29376
2018-04-09T05:46:36.275Z,23456
2018-04-09T05:47:36.267Z,26688
2018-04-09T05:48:36.304Z,28384
2018-04-09T05:49:36.316Z,26688
2018-04-09T05:50:36.092Z,25152
2018-04-09T05:51:36.208Z,27808
2018-04-09T05:53:36.424Z,34880
2018-04-09T05:54:36.451Z,37600
2018-04-09T05:55:36.204Z,39136
2018-04-09T05:56:36.492Z,40672
2018-04-09T05:57:36.517Z,43136
2018-04-09T05:58:36.279Z,41664
2018-04-09T05:59:36.619Z,42528
2018-04-09T06:00:36.330Z,43296
2018-04-09T06:01:36.354Z,42720
2018-04-09T06:02:36.646Z,43872
2018-04-09T06:03:36.664Z,43648
2018-04-09T06:04:36.693Z,43648
2018-04-09T06:05:36.864Z,44576
2018-04-09T06:06:36.752Z,47232
2018-04-09T06:07:36.516Z,46752
2018-04-09T06:08:36.537Z,46368
2018-04-09T06:09:36.940Z,46624
2018-04-09T06:10:36.590Z,46240
2018-04-09T06:11:36.875Z,47136
2018-04-09T06:12:36.906Z,47584
2018-04-09T06:13:51.594Z,49088
2018-04-09T06:14:36.960Z,48256
2018-04-09T06:15:36.731Z,47232
2018-04-09T06:17:36.787Z,51392
2018-04-09T06:18:37.071Z,48800
2018-04-09T06:19:37.100Z,45216
2018-04-09T06:20:37.130Z,41024
2018-04-09T06:21:37.162Z,41728
2018-04-09T06:22:36.926Z,44032
2018-04-09T06:23:37.240Z,44256
2018-04-09T06:24:51.647Z,49920
2018-04-09T06:25:37.280Z,52512
2018-04-09T06:26:37.354Z,56128
2018-04-09T06:29:37.397Z,57728
2018-04-09T06:30:37.167Z,57856
2018-04-09T06:31:37.458Z,58720
2018-04-09T06:32:37.229Z,60928
2018-04-09T06:33:37.257Z,59840
2018-04-09T06:34:37.546Z,59872
2018-04-09T06:35:37.581Z,60192
2018-04-09T06:36:37.608Z,59232
2018-04-09T06:37:37.121Z,60224
2018-04-09T06:38:37.665Z,60320
2018-04-09T06:39:37.443Z,60416
2018-04-09T06:40:52.393Z,61760
2018-04-09T06:41:37.763Z,62304
2018-04-09T06:42:37.537Z,61248
2018-04-09T06:43:37.569Z,61536
2018-04-09T06:44:37.855Z,62784
2018-04-09T06:45:52.646Z,62400
2018-04-09T06:47:52.619Z,54752
2018-04-09T06:48:37.981Z,54368
2018-04-09T06:49:38.020Z,56544
2018-04-09T06:50:52.189Z,58656
2018-04-09T06:51:37.824Z,58784
2018-04-09T06:52:38.126Z,63360
2018-04-09T06:54:38.178Z,63168
2018-04-09T06:57:07.563Z,65408
2018-04-09T06:57:38.019Z,64352
2018-04-09T06:58:38.306Z,62432
2018-04-09T06:59:53.006Z,64448
2018-04-09T07:00:38.112Z,66176
2018-04-09T07:01:38.402Z,65728
2018-04-09T07:02:53.102Z,63296
2018-04-09T07:03:38.470Z,63232
2018-04-09T07:04:38.240Z,64704
2018-04-09T07:05:38.274Z,63520
2018-04-09T07:06:38.566Z,65120
2018-04-09T07:07:38.602Z,67584
2018-04-09T07:08:38.632Z,67744
2018-04-09T07:09:53.329Z,64768
2018-04-09T07:10:38.447Z,64800
2018-04-09T07:11:38.482Z,65696
2018-04-09T07:12:53.168Z,66784
2018-04-09T07:16:38.918Z,63808
2018-04-09T07:17:38.677Z,65600
2018-04-09T07:18:38.450Z,65248
2018-04-09T07:19:39.001Z,66016
2018-04-09T07:20:53.442Z,65696
2018-04-09T07:21:38.811Z,65184
2018-04-09T07:22:39.105Z,66912
2018-04-09T07:23:39.239Z,65088
2018-04-09T07:24:38.655Z,62496
2018-04-09T07:25:53.866Z,65248
2018-04-09T07:26:39.295Z,67072
2018-04-09T07:28:08.597Z,66176
2018-04-09T07:28:39.310Z,65920
2018-04-09T07:29:54.007Z,65600
2018-04-09T07:30:39.393Z,66592
2018-04-09T07:31:39.413Z,66560
2018-04-09T07:32:39.183Z,65248
2018-04-09T07:33:39.483Z,64896
2018-04-09T07:34:39.252Z,62784
2018-04-09T07:35:39.543Z,63680
2018-04-09T07:36:39.584Z,64416
2018-04-09T07:37:39.664Z,62272
2018-04-09T07:39:39.475Z,61696
2018-04-09T07:40:39.715Z,63744
2018-04-09T07:41:54.413Z,61312
2018-04-09T07:42:54.445Z,62560
2018-04-09T07:43:39.561Z,64896
2018-04-09T07:45:39.931Z,61920
2018-04-09T07:46:39.921Z,59136
2018-04-09T07:47:39.980Z,60032
2018-04-09T07:48:39.996Z,59552
2018-04-09T07:49:40.069Z,60064
2018-04-09T07:50:39.813Z,61472
2018-04-09T07:51:39.312Z,62368
2018-04-09T07:52:54.792Z,59680
2018-04-09T07:53:54.824Z,56832
2018-04-09T07:54:40.193Z,56704
2018-04-09T07:55:39.714Z,58528
2018-04-09T07:56:40.271Z,61088
2018-04-09T07:57:39.778Z,60320
2018-04-09T07:58:40.334Z,60224
2018-04-09T07:59:55.023Z,58336
2018-04-09T08:00:40.457Z,56288
2018-04-09T08:02:40.212Z,56800
2018-04-09T08:04:40.018Z,57536
2018-04-09T08:05:55.228Z,56608
2018-04-09T08:06:40.607Z,55264
2018-04-09T08:07:40.647Z,56192
2018-04-09T08:08:40.151Z,51552
2018-04-09T08:09:40.446Z,49312
2018-04-09T08:10:40.740Z,48448
2018-04-09T08:11:40.252Z,51104
2018-04-09T08:12:40.286Z,53120
2018-04-09T08:13:40.841Z,52384
2018-04-09T08:14:55.537Z,53056
2018-04-09T08:15:55.315Z,51584
2018-04-09T08:16:40.943Z,53472
2018-04-09T08:17:55.375Z,52480
2018-04-09T08:18:41.006Z,52704
2018-04-09T08:19:41.055Z,51136
2018-04-09T08:20:41.074Z,48704
2018-04-09T08:21:55.772Z,49440
2018-04-09T08:22:40.885Z,50080
2018-04-09T08:23:40.917Z,47168
2018-04-09T08:24:40.689Z,47744
2018-04-09T08:25:41.240Z,47360
2018-04-09T08:26:41.276Z,47008
2018-04-09T08:27:41.311Z,46304
2018-04-09T08:28:41.090Z,45856
2018-04-09T08:29:40.900Z,44896
2018-04-09T08:30:56.071Z,45376
2018-04-09T08:31:55.587Z,44704
2018-04-09T08:32:55.623Z,43584
2018-04-09T08:33:56.175Z,45312
2018-04-09T08:34:41.283Z,46208
2018-04-09T08:35:41.576Z,44896
2018-04-09T08:36:41.358Z,44544
2018-04-09T08:37:41.643Z,42976
2018-04-09T08:38:41.414Z,43168
2018-04-09T08:39:41.761Z,41312
2018-04-09T08:40:41.232Z,40512
2018-04-09T08:41:41.773Z,40736
2018-04-09T08:42:41.805Z,41408
2018-04-09T08:43:41.581Z,42144
2018-04-09T08:44:41.872Z,42112
2018-04-09T08:45:41.648Z,40768
2018-04-09T08:46:41.941Z,40864
2018-04-09T08:47:56.375Z,39488
2018-04-09T08:48:42.017Z,38304
2018-04-09T08:49:41.524Z,38112
2018-04-09T08:50:42.071Z,36832
2018-04-09T08:51:41.845Z,36032
2018-04-09T08:52:42.143Z,35136
2018-04-09T08:53:41.912Z,34720
2018-04-09T08:54:42.200Z,34208
2018-04-09T08:55:42.062Z,33984
2018-04-09T08:56:42.276Z,33568
2018-04-09T08:57:42.311Z,31552
2018-04-09T08:58:42.332Z,25536
2018-04-09T08:59:42.405Z,23136
2018-04-09T09:00:42.405Z,22816
2018-04-09T09:01:41.981Z,22592
2018-04-09T09:03:42.506Z,22304
2018-04-09T09:04:42.533Z,22208
2018-04-09T09:05:42.307Z,22080
2018-04-09T09:06:42.609Z,21984
2018-04-09T09:07:42.631Z,21856
2018-04-09T09:08:42.673Z,21792
2018-04-09T09:09:42.702Z,21728
2018-04-09T09:10:42.734Z,21664
2018-04-09T09:11:42.503Z,21472
2018-04-09T09:13:42.577Z,21216
2018-04-09T09:14:42.865Z,21120
2018-04-09T09:16:42.669Z,20896
2018-04-09T09:17:42.973Z,20832
2018-04-09T09:18:42.992Z,20736
2018-04-09T09:19:43.036Z,20608
2018-04-09T09:20:57.460Z,20544
2018-04-09T09:21:42.571Z,20448
2018-04-09T09:23:43.155Z,20128
2018-04-09T09:24:57.853Z,19968
2018-04-09T09:25:57.881Z,19872
2018-04-09T09:26:43.252Z,19808
2018-04-09T09:27:43.029Z,19680
2018-04-09T09:28:57.724Z,19520
2018-04-09T09:29:43.088Z,19392
2018-04-09T09:30:43.122Z,19296
2018-04-09T09:31:42.898Z,19200
2018-04-09T09:32:43.502Z,19136
2018-04-09T09:33:43.317Z,19008
2018-04-09T09:34:58.191Z,18944
2018-04-09T09:35:43.540Z,18880
2018-04-09T09:36:43.319Z,18784
2018-04-09T09:37:43.680Z,18688
2018-04-09T09:38:43.646Z,18624
2018-04-09T09:39:43.671Z,18496
2018-04-09T09:40:43.444Z,18368
2018-04-09T09:41:43.476Z,18240
2018-04-09T09:42:43.772Z,18112
2018-04-09T09:43:43.797Z,18016
2018-04-09T09:44:43.829Z,17888
2018-04-09T09:45:43.343Z,17824
2018-04-09T09:46:43.908Z,17728
2018-04-09T09:47:43.407Z,17696
2018-04-09T09:48:43.958Z,17600
2018-04-09T09:49:43.988Z,17376
2018-04-09T09:51:44.055Z,17272
2018-04-09T09:52:43.823Z,17224
2018-04-09T09:53:44.215Z,17152
2018-04-09T09:54:44.149Z,17124
2018-04-09T09:56:43.951Z,16968
2018-04-09T09:57:58.645Z,16856
2018-04-09T09:58:44.290Z,16768
2018-04-09T09:59:44.047Z,16720
2018-04-09T10:00:44.079Z,16620
2018-04-09T10:01:44.493Z,16532
2018-04-09T10:02:44.143Z,16476
2018-04-09T10:03:44.449Z,16396
2018-04-09T10:05:44.496Z,16244
2018-04-09T10:06:59.187Z,16116
2018-04-09T10:07:44.577Z,16056
2018-04-09T10:08:44.073Z,15976
2018-04-09T10:09:44.628Z,15924
2018-04-09T10:10:59.155Z,15820
2018-04-09T10:11:44.427Z,15764
2018-04-09T10:13:59.414Z,15604
2018-04-09T10:14:44.784Z,15540
2018-04-09T10:15:44.817Z,15496
2018-04-09T10:17:44.874Z,15392
2018-04-09T10:18:44.654Z,15324
2018-04-09T10:19:44.938Z,15260
2018-04-09T10:20:59.629Z,15184
2018-04-09T10:21:45.016Z,15164
2018-04-09T10:23:14.352Z,15056
2018-04-09T10:23:45.069Z,15004
2018-04-09T10:24:45.093Z,14904
2018-04-09T10:25:45.123Z,14836
2018-04-09T10:26:45.207Z,14772
2018-04-09T10:27:44.926Z,14716
2018-04-09T10:28:59.619Z,14628
2018-04-09T10:29:59.918Z,14528
2018-04-09T10:30:45.034Z,14520
2018-04-09T10:31:59.724Z,14432
2018-04-09T10:32:45.338Z,14380
2018-04-09T10:33:45.131Z,14344
2018-04-09T10:34:45.142Z,14280
2018-04-09T10:35:45.583Z,14220
2018-04-09T10:37:00.124Z,14072
2018-04-09T10:38:00.156Z,14004
2018-04-09T10:38:45.260Z,13940
2018-04-09T10:39:59.953Z,13836
2018-04-09T10:40:45.583Z,13780
2018-04-09T10:41:45.384Z,13760
2018-04-09T10:42:45.649Z,13664
2018-04-09T10:44:00.332Z,13564
2018-04-09T10:45:00.366Z,13472
2018-04-09T10:46:00.387Z,13380
2018-04-09T10:47:00.160Z,13340
2018-04-09T10:48:00.193Z,13288
2018-04-09T10:48:45.813Z,13228
2018-04-09T10:49:46.007Z,13124
2018-04-09T10:50:45.876Z,12864
2018-04-09T10:52:45.671Z,12240
2018-04-09T10:53:45.963Z,11940
2018-04-09T10:54:46.039Z,11688
2018-04-09T10:56:00.787Z,11376
2018-04-09T10:56:45.536Z,11196
2018-04-09T10:58:00.740Z,10912
2018-04-09T10:58:45.845Z,10740
2018-04-09T10:59:45.615Z,10536
2018-04-09T11:01:00.820Z,10288
2018-04-09T11:01:45.927Z,10136
2018-04-09T11:02:46.212Z,9936
2018-04-09T11:03:46.260Z,9736
2018-04-09T11:04:46.270Z,9568
2018-04-09T11:05:51.004Z,9412
2018-04-09T11:07:00.991Z,9248
2018-04-09T11:07:46.099Z,9132
2018-04-09T11:09:01.044Z,8960
2018-04-09T11:10:00.811Z,8844
2018-04-09T11:11:00.841Z,8740
2018-04-09T11:11:46.276Z,8652
2018-04-09T11:13:00.894Z,8500
2018-04-09T11:13:46.360Z,8420
2018-04-09T11:14:46.553Z,8320
2018-04-09T11:15:46.321Z,8228
2018-04-09T11:16:46.606Z,8132
2018-04-09T11:18:46.146Z,7960
2018-04-09T11:19:46.482Z,7908
2018-04-09T11:20:46.717Z,7848
2018-04-09T11:21:46.484Z,7784
2018-04-09T11:22:46.775Z,7716
2018-04-09T11:24:01.203Z,7652
2018-04-09T11:24:46.832Z,7620
2018-04-09T11:26:16.175Z,7580
2018-04-09T11:26:46.644Z,7552
2018-04-09T11:28:01.310Z,7512
2018-04-09T11:28:46.940Z,7492
2018-04-09T11:29:46.966Z,7464
2018-04-09T11:30:46.741Z,7428
2018-04-09T11:31:46.758Z,7404
2018-04-09T11:33:01.706Z,7356
2018-04-09T11:33:47.081Z,7336
2018-04-09T11:34:47.101Z,7292
2018-04-09T11:35:47.136Z,7260
2018-04-09T11:36:47.159Z,7236
2018-04-09T11:37:47.182Z,7216
2018-04-09T11:38:46.951Z,7180
2018-04-09T11:39:47.239Z,7168
2018-04-09T11:40:47.267Z,7152
2018-04-09T11:42:01.950Z,7132
2018-04-09T11:42:47.064Z,7124
2018-04-09T11:43:47.087Z,7108
2018-04-09T11:45:02.036Z,7096
2018-04-09T11:45:47.141Z,7092
2018-04-09T11:46:47.176Z,7084
2018-04-09T11:47:47.463Z,7084
2018-04-09T11:48:47.519Z,7076
2018-04-09T11:50:47.279Z,7056
2018-04-09T11:51:47.560Z,7052
2018-04-09T11:53:01.991Z,7040
2018-04-09T11:53:47.624Z,7032
2018-04-09T11:54:47.382Z,7024
2018-04-09T11:55:47.413Z,7008
2018-04-09T11:56:47.441Z,7000
2018-04-09T11:58:02.108Z,6976
2018-04-09T11:58:47.497Z,6972
2018-04-09T11:59:47.520Z,6960
2018-04-09T12:00:47.543Z,6948
2018-04-09T12:01:47.572Z,6948
2018-04-09T12:02:47.343Z,6948
2018-04-09T12:03:47.623Z,6936
2018-04-09T12:04:47.655Z,6936
2018-04-09T12:06:02.599Z,6940
2018-04-09T12:07:47.990Z,6916
2018-04-09T12:08:47.763Z,6912
2018-04-09T12:09:48.044Z,6900
2018-04-09T12:10:47.818Z,6912
2018-04-09T12:11:48.101Z,6920
2018-04-09T12:13:02.793Z,6912
2018-04-09T12:13:47.898Z,6904
2018-04-09T12:14:48.180Z,6888
2018-04-09T12:15:48.004Z,6876
2018-04-09T12:16:48.239Z,6868
2018-04-09T12:17:48.003Z,6868
2018-04-09T12:19:47.803Z,6868
2018-04-09T12:20:48.085Z,6872
2018-04-09T12:21:48.372Z,6880
2018-04-09T12:22:48.187Z,6864
2018-04-09T12:23:47.918Z,6848
2018-04-09T12:24:48.457Z,6836
2018-04-09T12:25:48.221Z,6816
2018-04-09T12:26:48.504Z,6804
2018-04-09T12:27:48.530Z,6784
2018-04-09T12:28:48.662Z,6760
2018-04-09T12:29:48.591Z,6748
2018-04-09T12:30:48.359Z,6736
2018-04-09T12:32:02.786Z,6724
2018-04-09T12:32:48.411Z,6712
2018-04-09T12:33:48.433Z,6704
2018-04-09T12:34:48.718Z,6672
2018-04-09T12:35:48.749Z,6668
2018-04-09T12:37:48.799Z,6680
2018-04-09T12:38:48.834Z,6692
2018-04-09T12:39:48.869Z,6696
2018-04-09T12:40:48.626Z,6728
2018-04-09T12:41:48.389Z,6728
2018-04-09T12:42:48.420Z,6736
2018-04-09T12:43:48.701Z,6728
2018-04-09T12:45:03.645Z,6728
2018-04-09T12:45:48.784Z,6768
2018-04-09T12:47:03.699Z,6756
2018-04-09T12:47:48.809Z,6760
2018-04-09T12:48:48.835Z,6760
2018-04-09T12:49:48.872Z,6760
2018-04-09T12:50:48.373Z,6768
2018-04-09T12:51:48.915Z,6760
2018-04-09T12:53:03.863Z,6788
2018-04-09T12:54:03.631Z,6768
2018-04-09T12:54:48.994Z,6768
2018-04-09T12:55:49.022Z,6760
2018-04-09T12:56:49.082Z,6752
2018-04-09T12:57:55.339Z,6736
2018-04-09T12:58:49.354Z,6724
2018-04-09T12:59:49.377Z,6712
2018-04-09T13:01:49.436Z,6708
2018-04-09T13:03:03.863Z,6700
2018-04-09T13:04:04.145Z,6708
2018-04-09T13:04:48.999Z,6712
2018-04-09T13:05:49.027Z,6720
2018-04-09T13:06:49.572Z,6692
2018-04-09T13:07:49.350Z,6712
2018-04-09T13:08:49.362Z,6692
2018-04-09T13:09:49.389Z,6688
2018-04-09T13:10:49.669Z,6696
2018-04-09T13:11:49.182Z,6684
2018-04-09T13:12:49.466Z,6680
2018-04-09T13:13:49.494Z,6664
2018-04-09T13:14:49.778Z,6588
2018-04-09T13:15:49.804Z,6576
2018-04-09T13:17:04.235Z,6572
2018-04-09T13:17:49.856Z,6568
2018-04-09T13:19:04.545Z,6568
2018-04-09T13:20:49.679Z,6556
2018-04-09T13:21:49.788Z,6552
2018-04-09T13:22:49.749Z,6556
2018-04-09T13:25:04.448Z,6536
2018-04-09T13:25:49.817Z,6512
2018-04-09T13:26:50.096Z,6504
2018-04-09T13:27:49.862Z,6508
2018-04-09T13:28:49.896Z,6512
2018-04-09T13:29:50.176Z,6496
2018-04-09T13:30:49.950Z,6480
2018-04-09T13:31:49.966Z,6476
2018-04-09T13:33:04.657Z,6468
2018-04-09T13:33:49.765Z,6448
2018-04-09T13:34:50.311Z,6452
2018-04-09T13:37:04.764Z,6444
2018-04-09T13:37:50.385Z,6440
2018-04-09T13:38:50.154Z,6428
2018-04-09T13:39:49.926Z,6416
2018-04-09T13:40:50.470Z,6408
2018-04-09T13:42:04.897Z,6412
2018-04-09T13:42:50.273Z,6400
2018-04-09T13:43:50.545Z,6400
2018-04-09T13:44:50.572Z,6392
2018-04-09T13:45:50.343Z,6364
2018-04-09T13:48:05.057Z,6448
2018-04-09T13:48:50.165Z,6416
2018-04-09T13:50:05.369Z,6448
2018-04-09T13:50:50.474Z,6444
2018-04-09T13:51:50.511Z,6388
2018-04-09T13:52:50.528Z,6316
2018-04-09T13:53:50.839Z,6392
2018-04-09T13:54:50.846Z,6400
2018-04-09T13:55:50.617Z,6416
2018-04-09T13:57:50.923Z,6432
2018-04-09T13:58:50.174Z,6352
2018-04-09T13:59:50.972Z,6088
2018-04-09T14:00:50.486Z,6180
2018-04-09T14:01:51.026Z,6192
2018-04-09T14:02:50.539Z,6112
2018-04-09T14:03:50.820Z,6136
2018-04-09T14:04:50.847Z,6212
2018-04-09T14:05:51.129Z,6340
2018-04-09T14:06:50.903Z,6364
2018-04-09T14:07:50.929Z,6392
2018-04-09T14:08:51.209Z,6348
2018-04-09T14:09:50.989Z,6308
2018-04-09T14:10:51.006Z,6092
2018-04-09T14:11:51.297Z,5832
2018-04-09T14:12:51.322Z,5772
2018-04-09T14:13:51.092Z,5752
2018-04-09T14:14:51.113Z,5652
2018-04-09T14:15:51.401Z,5668
2018-04-09T14:16:51.167Z,5736
2018-04-09T14:17:51.457Z,5696
2018-04-09T14:18:51.479Z,5680
2018-04-09T14:20:05.911Z,5716
2018-04-09T14:20:51.532Z,5848
2018-04-09T14:21:51.558Z,5844
2018-04-09T14:22:51.326Z,5748